Terminal Aerodrome Forecast
Issued by NWS Cleveland, OH

Home | Current Version | Previous Version | Graphics & Text | Print | Product List | Glossary Off
Versions: 1 2 3 4 5 6 7 8 9 10 11 12 13 14 15 16

000
FTUS41 KCLE 171400 AAB
TAFCAK
TAF AMD
KCAK 171430Z 1715/1812 28005KT P6SM BKN008 OVC015
     FM171800 29008KT P6SM BKN025
     FM172000 31006KT P6SM SCT030
     FM180000 VRB03KT P6SM SKC=

USA.gov is the U.S. government's official web portal to all federal, state and local government web resources and services.